Winstonville, Mississippi
Current Conditions -  °F | °C
As of 11:35 PM on Tuesday 21 Oct 2014 (Local Time) from KRNV Reporting Station
Moderate Fog Moderate Fog  
Wind Chill: 57°   Ceiling: 200
Heat Index: 57°   Visibility: 0.25mi
Dew Point: 53°   Wind: 0mph
Humidity: 85%   Direction: NA
Pressure: 30.09"   Gusts: NA
Location:  33.91°N, 90.75°W
Report Text: KRNV 220435Z AUTO 00000KT 1/4SM FG VV002 14/12 A3009 RMK AO2 T01390115
Loading
Personal Weather Stations






























Interactive Weather Map
Tropical Storm Tracking
New forecast layout! Learn more

10-Day Weather Forecast

Advertisements
Track Severe Weather on mobile